Terminal Aerodrome Forecast
Issued by NWS

Home | Current Version | Previous Version | Text Only | Print | Product List | Glossary On
Versions: 1 2 3 4 5 6 7 8 9 10 11 12 13 14 15 16
000
FTUS44 KLIX 250520
TAFMCB
TAF
KMCB 250520Z 2506/2606 00000KT P6SM FEW080
     FM250900 00000KT P6SM SCT025 BKN250
      TEMPO 2509/2513 3SM BR
     FM251600 10010KT P6SM VCSH SCT035 BKN050
      TEMPO 2519/2523 VRB15G25KT 1SM TSRA BR BKN030CB
     FM252300 VRB03KT P6SM SCT030 BKN100=

USA.gov is the U.S. government's official web portal to all federal, state and local government web resources and services.